Time;durP1;ratioP1;P1;durP2;ratioP2;P2;SDS_P1;SDS_P2;PMS_P1;PMS_P2;Temp;Humidity;BMP_temperature;BMP_pressure;BME280_temperature;BME280_humidity;BME280_pressure;Samples;Min_cycle;Max_cycle;Signal;HPM_P1;HPM_P2
2023/03/18 00:01:29;;;;;;;25.90;17.95;;;;;;;;;;4974722;28;20097;-76
2023/03/18 00:03:55;;;;;;;23.42;17.95;;;;;;;;;;4969658;28;20050;-76
2023/03/18 00:06:21;;;;;;;22.20;17.08;;;;;;;;;;4974443;28;20055;-76
2023/03/18 00:08:48;;;;;;;24.80;18.95;;;;;;;;;;4974880;28;20359;-75
2023/03/18 00:11:15;;;;;;;22.73;18.40;;;;;;;;;;4974523;28;20046;-76
2023/03/18 00:13:42;;;;;;;22.38;16.55;;;;;;;;;;4974826;28;20073;-76
2023/03/18 00:16:10;;;;;;;25.95;19.95;;;;;;;;;;4974390;28;20039;-76
2023/03/18 00:18:36;;;;;;;22.58;17.75;;;;;;;;;;4974284;28;20389;-76
2023/03/18 00:21:03;;;;;;;22.92;17.55;;;;;;;;;;4973164;28;20062;-76
2023/03/18 00:23:29;;;;;;;22.50;18.30;;;;;;;;;;4974563;28;20054;-76
2023/03/18 00:25:56;;;;;;;26.80;19.45;;;;;;;;;;4974551;28;20101;-76
2023/03/18 00:28:23;;;;;;;25.45;18.75;;;;;;;;;;4974264;28;20497;-76
2023/03/18 00:30:49;;;;;;;25.05;19.25;;;;;;;;;;4974591;28;20050;-76
2023/03/18 00:33:15;;;;;;;25.67;18.33;;;;;;;;;;4974768;28;20126;-76
2023/03/18 00:35:41;;;;;;;24.63;18.95;;;;;;;;;;4974393;28;20050;-76
2023/03/18 00:38:14;;;;;;;26.65;19.13;;;;;;;;;;4973268;28;20075;-76
2023/03/18 00:40:52;;;;;;;28.40;19.98;;;;;;;;;;4955451;28;20118;-76
2023/03/18 00:43:21;;;;;;;27.92;19.92;;;;;;;;;;4960525;28;20490;-76
2023/03/18 00:45:48;;;;;;;27.27;20.60;;;;;;;;;;4955065;28;20066;-76
2023/03/18 00:48:14;;;;;;;27.05;20.38;;;;;;;;;;4955416;28;20051;-76
2023/03/18 00:50:40;;;;;;;28.90;19.95;;;;;;;;;;4955631;28;20042;-76
2023/03/18 00:53:06;;;;;;;24.95;19.77;;;;;;;;;;4968655;28;20043;-76
2023/03/18 00:55:33;;;;;;;25.80;19.08;;;;;;;;;;4974629;28;20054;-76
2023/03/18 00:58:00;;;;;;;24.50;20.17;;;;;;;;;;4974054;28;20047;-76
2023/03/18 01:00:26;;;;;;;24.10;19.80;;;;;;;;;;4967983;28;20039;-76
2023/03/18 01:02:53;;;;;;;26.25;19.17;;;;;;;;;;4974151;28;20074;-76
2023/03/18 01:05:20;;;;;;;27.58;19.75;;;;;;;;;;4977702;28;20090;-76
2023/03/18 01:07:46;;;;;;;25.50;19.33;;;;;;;;;;4977623;28;20183;-75
2023/03/18 01:10:14;;;;;;;26.23;19.98;;;;;;;;;;4977783;28;20074;-76
2023/03/18 01:12:41;;;;;;;28.45;20.73;;;;;;;;;;4977789;28;20047;-76
2023/03/18 01:15:09;;;;;;;30.08;21.65;;;;;;;;;;4977851;28;20109;-76
2023/03/18 01:17:35;;;;;;;26.48;20.77;;;;;;;;;;4977799;28;20050;-76
2023/03/18 01:20:02;;;;;;;29.77;22.30;;;;;;;;;;4977046;28;20058;-76
2023/03/18 01:22:29;;;;;;;29.38;22.17;;;;;;;;;;4977614;28;20057;-76
2023/03/18 01:24:56;;;;;;;27.65;22.33;;;;;;;;;;4977695;28;20073;-76
2023/03/18 01:27:23;;;;;;;30.55;23.80;;;;;;;;;;4977872;28;20485;-76
2023/03/18 01:29:50;;;;;;;34.65;24.98;;;;;;;;;;4977379;28;20074;-76
2023/03/18 01:32:17;;;;;;;31.75;24.48;;;;;;;;;;4977688;28;20047;-76
2023/03/18 01:34:43;;;;;;;30.63;25.08;;;;;;;;;;4977286;28;20043;-76
2023/03/18 01:37:10;;;;;;;29.60;23.70;;;;;;;;;;4977051;28;20090;-76
2023/03/18 01:39:37;;;;;;;33.28;24.13;;;;;;;;;;4977527;28;20058;-76
2023/03/18 01:42:04;;;;;;;31.88;23.88;;;;;;;;;;4977523;28;20127;-76
2023/03/18 01:44:30;;;;;;;38.10;25.88;;;;;;;;;;4977345;28;20050;-76
2023/03/18 01:46:56;;;;;;;37.28;26.33;;;;;;;;;;4980312;28;20087;-76
2023/03/18 01:49:43;;;;;;;35.90;24.95;;;;;;;;;;4982910;28;20047;-76
2023/03/18 01:52:10;;;;;;;;;;;;;;;;;;4980809;28;20043;-76
2023/03/18 01:54:39;;;;;;;33.40;25.23;;;;;;;;;;4978130;28;20020;-76
2023/03/18 01:57:06;;;;;;;35.45;25.63;;;;;;;;;;4976719;28;20101;-76
2023/03/18 01:59:33;;;;;;;37.08;27.90;;;;;;;;;;4977508;28;20051;-76
2023/03/18 02:02:05;;;;;;;36.45;26.95;;;;;;;;;;4977581;28;20046;-76
2023/03/18 02:04:35;;;;;;;39.08;28.20;;;;;;;;;;4974995;28;20410;-76
2023/03/18 02:07:01;;;;;;;39.28;27.58;;;;;;;;;;4976692;28;20398;-76
2023/03/18 02:09:28;;;;;;;37.75;28.25;;;;;;;;;;4976715;28;20121;-76
2023/03/18 02:11:55;;;;;;;41.40;29.58;;;;;;;;;;4976809;28;20066;-76
2023/03/18 02:14:22;;;;;;;40.78;29.63;;;;;;;;;;4976307;28;20373;-76
2023/03/18 02:16:53;;;;;;;46.50;32.83;;;;;;;;;;4976976;28;20098;-75
2023/03/18 02:19:25;;;;;;;43.28;31.38;;;;;;;;;;4976514;28;20058;-76
2023/03/18 02:21:56;;;;;;;46.63;32.33;;;;;;;;;;4976823;28;20050;-76
2023/03/18 02:24:22;;;;;;;48.03;32.78;;;;;;;;;;4975068;28;20046;-75
2023/03/18 02:27:07;;;;;;;50.10;33.13;;;;;;;;;;4991136;28;20051;-75
2023/03/18 02:29:35;;;;;;;48.42;31.77;;;;;;;;;;4976629;28;20058;-76
2023/03/18 02:32:02;;;;;;;49.95;33.22;;;;;;;;;;4976502;28;20054;-76
2023/03/18 02:34:29;;;;;;;47.67;32.25;;;;;;;;;;4975804;28;20034;-75
2023/03/18 02:36:56;;;;;;;50.13;34.55;;;;;;;;;;4975824;28;20409;-75
2023/03/18 02:39:22;;;;;;;47.30;32.28;;;;;;;;;;4968811;28;20047;-76
2023/03/18 02:41:49;;;;;;;49.90;33.70;;;;;;;;;;4957152;28;20102;-76
2023/03/18 02:44:15;;;;;;;50.13;34.33;;;;;;;;;;4972170;28;20374;-76
2023/03/18 02:47:02;;;;;;;51.22;34.30;;;;;;;;;;4976387;28;20101;-76
2023/03/18 02:49:29;;;;;;;50.65;34.55;;;;;;;;;;4975767;28;20043;-76
2023/03/18 02:51:56;;;;;;;48.47;33.92;;;;;;;;;;4976381;28;20051;-76
2023/03/18 02:54:24;;;;;;;48.10;33.58;;;;;;;;;;4975050;28;20520;-76
2023/03/18 02:56:50;;;;;;;52.00;36.10;;;;;;;;;;4976087;28;20062;-76
2023/03/18 02:59:17;;;;;;;48.95;35.42;;;;;;;;;;4974673;28;20542;-76
2023/03/18 03:01:44;;;;;;;51.40;36.53;;;;;;;;;;4976089;28;20073;-76
2023/03/18 03:04:11;;;;;;;52.28;35.50;;;;;;;;;;4975624;28;20082;-76
2023/03/18 03:06:37;;;;;;;52.50;34.55;;;;;;;;;;4975954;28;20043;-75
2023/03/18 03:09:04;;;;;;;54.00;34.95;;;;;;;;;;4975873;28;20047;-75
2023/03/18 03:11:31;;;;;;;54.50;36.92;;;;;;;;;;4975431;28;20058;-76
2023/03/18 03:13:59;;;;;;;52.75;36.03;;;;;;;;;;4973905;28;20051;-76
2023/03/18 03:16:25;;;;;;;56.85;34.85;;;;;;;;;;4975379;28;20463;-76
2023/03/18 03:18:51;;;;;;;55.67;36.78;;;;;;;;;;4975369;28;20118;-76
2023/03/18 03:21:18;;;;;;;56.58;38.03;;;;;;;;;;4975356;28;20137;-76
2023/03/18 03:23:44;;;;;;;52.60;34.72;;;;;;;;;;4975625;28;20089;-76
2023/03/18 03:26:11;;;;;;;51.67;35.63;;;;;;;;;;4974909;28;20094;-76
2023/03/18 03:28:37;;;;;;;53.65;35.70;;;;;;;;;;4974851;28;20049;-76
2023/03/18 03:31:03;;;;;;;53.15;35.95;;;;;;;;;;4975138;28;20088;-76
2023/03/18 03:33:29;;;;;;;57.92;36.33;;;;;;;;;;4975359;28;20461;-76
2023/03/18 03:35:56;;;;;;;54.47;36.40;;;;;;;;;;4975426;28;20043;-76
2023/03/18 03:38:23;;;;;;;56.88;36.92;;;;;;;;;;4975333;28;20051;-76
2023/03/18 03:40:50;;;;;;;57.67;37.10;;;;;;;;;;4974748;28;20489;-76
2023/03/18 03:43:17;;;;;;;60.63;38.63;;;;;;;;;;4975410;28;20066;-75
2023/03/18 03:45:43;;;;;;;59.42;37.70;;;;;;;;;;4974621;28;20577;-75
2023/03/18 03:48:10;;;;;;;61.75;38.95;;;;;;;;;;4974364;28;20512;-76
2023/03/18 03:50:36;;;;;;;59.03;37.58;;;;;;;;;;4974721;28;20085;-76
2023/03/18 03:53:03;;;;;;;59.03;37.78;;;;;;;;;;4973745;28;20050;-76
2023/03/18 03:55:30;;;;;;;58.17;37.13;;;;;;;;;;4975183;28;20054;-75
2023/03/18 03:57:56;;;;;;;56.88;37.28;;;;;;;;;;4974938;28;20710;-76
2023/03/18 04:00:22;;;;;;;59.55;38.60;;;;;;;;;;4974335;28;20064;-76
2023/03/18 04:02:49;;;;;;;54.05;36.08;;;;;;;;;;4974638;28;20553;-75
2023/03/18 04:05:16;;;;;;;53.05;34.85;;;;;;;;;;4974945;28;20081;-76
2023/03/18 04:07:43;;;;;;;60.28;38.78;;;;;;;;;;4989387;28;20051;-76
2023/03/18 04:10:10;;;;;;;54.50;36.92;;;;;;;;;;4974682;28;20414;-76
2023/03/18 04:12:37;;;;;;;58.10;36.25;;;;;;;;;;4974758;28;20128;-75
2023/03/18 04:15:04;;;;;;;54.58;35.83;;;;;;;;;;4974354;28;20121;-75
2023/03/18 04:17:30;;;;;;;56.70;36.47;;;;;;;;;;4974767;28;20093;-75
2023/03/18 04:19:57;;;;;;;56.22;35.30;;;;;;;;;;4974027;28;20091;-75
2023/03/18 04:22:23;;;;;;;59.63;37.78;;;;;;;;;;4974006;28;20133;-76
2023/03/18 04:24:50;;;;;;;54.67;35.75;;;;;;;;;;4974745;28;20070;-76
2023/03/18 04:27:17;;;;;;;56.35;36.33;;;;;;;;;;4974848;28;20126;-75
2023/03/18 04:29:43;;;;;;;53.47;36.65;;;;;;;;;;4974368;28;20502;-76
2023/03/18 04:32:09;;;;;;;51.42;36.42;;;;;;;;;;4974594;28;20054;-75
2023/03/18 04:34:36;;;;;;;53.67;34.65;;;;;;;;;;4974403;28;20039;-75
2023/03/18 04:37:02;;;;;;;54.00;36.15;;;;;;;;;;4961754;28;20460;-75
2023/03/18 04:39:28;;;;;;;54.70;36.67;;;;;;;;;;4957285;28;20422;-76
2023/03/18 04:41:55;;;;;;;55.78;36.17;;;;;;;;;;4959289;28;20051;-76
2023/03/18 04:44:23;;;;;;;59.00;37.78;;;;;;;;;;4959311;28;20051;-76
2023/03/18 04:46:49;;;;;;;56.42;37.75;;;;;;;;;;4958631;28;20054;-76
2023/03/18 04:49:15;;;;;;;62.33;37.72;;;;;;;;;;4968906;28;20047;-76
2023/03/18 04:51:41;;;;;;;57.30;36.17;;;;;;;;;;4977493;28;20043;-76
2023/03/18 04:54:07;;;;;;;60.60;39.20;;;;;;;;;;4976682;28;20057;-75
2023/03/18 04:56:34;;;;;;;59.40;37.67;;;;;;;;;;4978868;28;20644;-75
2023/03/18 04:59:00;;;;;;;62.63;38.40;;;;;;;;;;4982278;28;20053;-76
2023/03/18 05:01:27;;;;;;;58.70;38.53;;;;;;;;;;4982884;28;20053;-76
2023/03/18 05:03:53;;;;;;;63.63;39.53;;;;;;;;;;4977441;28;20043;-76
2023/03/18 05:06:24;;;;;;;63.30;39.92;;;;;;;;;;4977827;28;20069;-76
2023/03/18 05:08:50;;;;;;;63.97;38.42;;;;;;;;;;4978446;28;20537;-76
2023/03/18 05:11:17;;;;;;;58.22;36.80;;;;;;;;;;4977941;28;20047;-76
2023/03/18 05:13:43;;;;;;;59.28;38.22;;;;;;;;;;4977668;28;20050;-76
2023/03/18 05:16:10;;;;;;;61.58;37.88;;;;;;;;;;4977115;28;20046;-75
2023/03/18 05:18:37;;;;;;;62.75;38.63;;;;;;;;;;4977283;28;20043;-76
2023/03/18 05:21:03;;;;;;;61.90;37.92;;;;;;;;;;4977125;28;20054;-76
2023/03/18 05:23:30;;;;;;;61.47;38.50;;;;;;;;;;4977502;28;20130;-76
2023/03/18 05:25:56;;;;;;;62.45;37.22;;;;;;;;;;4977295;28;20043;-75
2023/03/18 05:28:22;;;;;;;62.35;37.88;;;;;;;;;;4976122;28;20050;-76
2023/03/18 05:30:48;;;;;;;60.33;36.33;;;;;;;;;;4977431;28;20042;-76
2023/03/18 05:33:15;;;;;;;64.72;38.03;;;;;;;;;;4977205;28;20058;-76
2023/03/18 05:35:41;;;;;;;62.85;34.05;;;;;;;;;;4977186;28;20126;-76
2023/03/18 05:38:07;;;;;;;58.33;34.42;;;;;;;;;;4977408;28;20082;-76
2023/03/18 05:40:33;;;;;;;59.28;35.13;;;;;;;;;;4977337;28;20047;-75
2023/03/18 05:42:59;;;;;;;58.17;35.40;;;;;;;;;;4977060;28;20066;-76
2023/03/18 05:45:25;;;;;;;70.70;36.85;;;;;;;;;;4973696;28;20505;-76
2023/03/18 05:47:51;;;;;;;71.75;38.50;;;;;;;;;;4964793;28;20382;-76
2023/03/18 05:50:38;;;;;;;84.15;37.95;;;;;;;;;;4977098;28;20043;-76
2023/03/18 05:53:04;;;;;;;;;;;;;;;;;;4977373;28;20101;-76
2023/03/18 05:55:31;;;;;;;79.30;37.75;;;;;;;;;;4976929;28;20436;-76
2023/03/18 05:57:57;;;;;;;76.50;36.05;;;;;;;;;;4976717;28;20118;-76
2023/03/18 06:00:24;;;;;;;94.00;39.10;;;;;;;;;;4976572;28;20468;-76
2023/03/18 06:02:53;;;;;;;105.57;41.50;;;;;;;;;;4977094;28;20051;-76
2023/03/18 06:05:20;;;;;;;84.68;38.75;;;;;;;;;;4977054;28;20035;-76
2023/03/18 06:07:47;;;;;;;102.72;41.72;;;;;;;;;;4976950;28;20371;-76
2023/03/18 06:10:13;;;;;;;86.20;40.70;;;;;;;;;;4976743;28;20592;-76
2023/03/18 06:12:40;;;;;;;104.45;41.80;;;;;;;;;;4976642;28;20493;-76
2023/03/18 06:15:06;;;;;;;136.40;44.28;;;;;;;;;;4976704;28;20042;-76
2023/03/18 06:17:32;;;;;;;113.20;41.88;;;;;;;;;;4976015;28;20465;-76
2023/03/18 06:19:59;;;;;;;110.28;41.75;;;;;;;;;;4976554;28;20063;-76
2023/03/18 06:22:25;;;;;;;115.85;41.10;;;;;;;;;;4975292;28;20078;-76
2023/03/18 06:24:52;;;;;;;148.98;40.45;;;;;;;;;;4976596;28;20474;-75
2023/03/18 06:27:18;;;;;;;158.38;41.20;;;;;;;;;;4976301;28;20046;-76
2023/03/18 06:29:44;;;;;;;142.82;40.55;;;;;;;;;;4968889;28;20046;-76
2023/03/18 06:32:11;;;;;;;159.75;39.72;;;;;;;;;;4975773;28;20046;-76
2023/03/18 06:34:37;;;;;;;113.88;37.28;;;;;;;;;;4976557;28;20054;-76
2023/03/18 06:37:03;;;;;;;113.63;35.13;;;;;;;;;;4975956;28;20053;-76
2023/03/18 06:39:29;;;;;;;131.05;35.70;;;;;;;;;;4976177;28;20065;-76
2023/03/18 06:41:55;;;;;;;91.07;34.65;;;;;;;;;;4976461;28;20150;-76
2023/03/18 06:44:22;;;;;;;156.02;35.85;;;;;;;;;;4975935;28;20053;-75
2023/03/18 06:46:48;;;;;;;158.32;33.63;;;;;;;;;;4975768;28;20043;-76
2023/03/18 06:49:14;;;;;;;86.10;30.35;;;;;;;;;;4976159;28;20046;-76
2023/03/18 06:51:41;;;;;;;105.97;30.33;;;;;;;;;;4975852;28;20035;-75
2023/03/18 06:54:08;;;;;;;153.93;34.85;;;;;;;;;;4975422;28;20414;-75
2023/03/18 06:56:37;;;;;;;103.40;28.73;;;;;;;;;;4976076;28;20121;-76
2023/03/18 06:59:03;;;;;;;75.40;26.67;;;;;;;;;;4975651;28;20584;-76
2023/03/18 07:01:31;;;;;;;83.15;27.48;;;;;;;;;;4973231;28;20098;-76
2023/03/18 07:03:59;;;;;;;83.32;29.13;;;;;;;;;;4975929;28;20046;-76
2023/03/18 07:06:25;;;;;;;79.65;28.38;;;;;;;;;;4975662;28;20054;-76
2023/03/18 07:08:51;;;;;;;77.70;29.95;;;;;;;;;;4974335;28;20051;-76
2023/03/18 07:11:18;;;;;;;77.10;31.48;;;;;;;;;;4976027;28;20456;-78
2023/03/18 07:13:44;;;;;;;66.47;29.60;;;;;;;;;;4974184;28;20051;-76
2023/03/18 07:16:10;;;;;;;70.63;32.08;;;;;;;;;;4975187;28;20474;-76
2023/03/18 07:18:36;;;;;;;72.90;32.08;;;;;;;;;;4974277;28;20397;-76
2023/03/18 07:21:03;;;;;;;66.82;30.70;;;;;;;;;;4975591;28;20129;-76
2023/03/18 07:23:29;;;;;;;66.35;29.85;;;;;;;;;;4975798;28;20055;-76
2023/03/18 07:25:55;;;;;;;68.85;32.00;;;;;;;;;;4975076;28;20053;-76
2023/03/18 07:28:21;;;;;;;69.00;32.40;;;;;;;;;;4973991;28;20055;-76
2023/03/18 07:30:48;;;;;;;63.85;31.33;;;;;;;;;;4973153;28;20090;-76
2023/03/18 07:33:14;;;;;;;62.90;33.58;;;;;;;;;;4974378;28;20050;-77
2023/03/18 07:35:40;;;;;;;60.50;32.58;;;;;;;;;;4976216;28;20043;-76
2023/03/18 07:38:11;;;;;;;61.28;32.13;;;;;;;;;;4974010;28;20397;-76
2023/03/18 07:40:37;;;;;;;65.68;33.67;;;;;;;;;;4975013;28;20430;-75
2023/03/18 07:43:04;;;;;;;60.58;32.95;;;;;;;;;;4974674;28;20082;-76
2023/03/18 07:45:31;;;;;;;58.45;33.38;;;;;;;;;;4973586;28;20043;-75
2023/03/18 07:47:57;;;;;;;61.28;34.83;;;;;;;;;;4974996;28;20043;-75
2023/03/18 07:50:23;;;;;;;62.95;34.63;;;;;;;;;;4975058;28;20105;-75
2023/03/18 07:52:49;;;;;;;60.13;34.20;;;;;;;;;;4975480;28;20057;-75
2023/03/18 07:55:15;;;;;;;59.15;32.75;;;;;;;;;;4967850;28;20050;-75
2023/03/18 07:57:41;;;;;;;53.47;32.72;;;;;;;;;;4970067;28;20089;-75
2023/03/18 08:00:11;;;;;;;52.90;32.80;;;;;;;;;;4974309;28;20083;-75
2023/03/18 08:02:37;;;;;;;52.53;33.50;;;;;;;;;;4970548;28;20053;-75
2023/03/18 08:05:05;;;;;;;55.22;33.97;;;;;;;;;;4974821;28;20046;-75
2023/03/18 08:07:32;;;;;;;53.10;32.42;;;;;;;;;;4974759;28;20046;-75
2023/03/18 08:09:58;;;;;;;52.33;32.28;;;;;;;;;;4978370;28;20058;-75
2023/03/18 08:12:24;;;;;;;50.22;31.65;;;;;;;;;;4980479;28;20042;-76
2023/03/18 08:14:51;;;;;;;50.22;33.15;;;;;;;;;;4976251;28;20082;-75
2023/03/18 08:17:17;;;;;;;50.08;30.42;;;;;;;;;;4975373;28;20038;-76
2023/03/18 08:19:43;;;;;;;50.15;32.40;;;;;;;;;;4974365;28;20087;-76
2023/03/18 08:22:10;;;;;;;47.15;31.70;;;;;;;;;;4975549;28;20035;-77
2023/03/18 08:24:37;;;;;;;48.35;31.95;;;;;;;;;;4976300;28;20050;-79
2023/03/18 08:27:03;;;;;;;50.08;32.33;;;;;;;;;;4974767;28;20043;-76
2023/03/18 08:29:31;;;;;;;42.40;29.80;;;;;;;;;;4974370;28;20054;-76
2023/03/18 08:31:57;;;;;;;43.50;30.85;;;;;;;;;;4974177;28;20433;-77
2023/03/18 08:34:23;;;;;;;43.47;31.38;;;;;;;;;;4968068;28;20073;-79
2023/03/18 08:36:49;;;;;;;46.25;31.85;;;;;;;;;;4975040;28;20047;-79
2023/03/18 08:39:15;;;;;;;44.33;30.33;;;;;;;;;;4969416;28;20050;-78
2023/03/18 08:41:41;;;;;;;47.08;31.42;;;;;;;;;;4974586;28;20046;-78
2023/03/18 08:44:09;;;;;;;46.83;32.70;;;;;;;;;;4975689;28;20110;-78
2023/03/18 08:46:36;;;;;;;42.25;31.77;;;;;;;;;;4995168;28;20078;-78
2023/03/18 08:49:02;;;;;;;44.20;32.53;;;;;;;;;;4995030;28;20053;-78
2023/03/18 08:51:28;;;;;;;46.10;31.88;;;;;;;;;;4975605;28;20098;-77
2023/03/18 08:53:54;;;;;;;43.08;32.00;;;;;;;;;;4974731;28;20038;-77
2023/03/18 08:56:20;;;;;;;41.75;31.08;;;;;;;;;;4975317;28;20046;-77
2023/03/18 08:58:47;;;;;;;45.42;30.80;;;;;;;;;;4977070;28;20043;-77
2023/03/18 09:01:13;;;;;;;40.40;29.88;;;;;;;;;;4974643;28;20051;-79
2023/03/18 09:03:39;;;;;;;44.80;30.63;;;;;;;;;;4974337;28;20051;-77
2023/03/18 09:06:06;;;;;;;43.08;30.35;;;;;;;;;;4968922;28;20047;-77
2023/03/18 09:08:32;;;;;;;46.55;31.10;;;;;;;;;;4975323;28;20038;-77
2023/03/18 09:10:59;;;;;;;39.35;29.55;;;;;;;;;;4972044;28;20054;-77
2023/03/18 09:13:25;;;;;;;39.05;29.67;;;;;;;;;;4966660;28;20555;-77
2023/03/18 09:15:51;;;;;;;41.72;29.92;;;;;;;;;;4973753;28;20047;-77
2023/03/18 09:18:21;;;;;;;40.45;28.73;;;;;;;;;;4973053;28;20145;-77
2023/03/18 09:20:48;;;;;;;40.25;29.23;;;;;;;;;;4975687;28;20510;-77
2023/03/18 09:23:16;;;;;;;38.05;29.85;;;;;;;;;;4974292;28;20057;-77
2023/03/18 09:25:42;;;;;;;36.78;26.90;;;;;;;;;;4975751;28;20082;-78
2023/03/18 09:28:08;;;;;;;37.22;28.10;;;;;;;;;;4982232;28;20096;-77
2023/03/18 09:30:34;;;;;;;35.45;26.65;;;;;;;;;;4979214;28;20054;-77
2023/03/18 09:33:00;;;;;;;39.17;28.10;;;;;;;;;;4975007;28;20061;-77
2023/03/18 09:35:30;;;;;;;39.80;29.52;;;;;;;;;;4977037;28;20058;-77
2023/03/18 09:37:56;;;;;;;36.60;27.60;;;;;;;;;;4973788;28;20039;-77
2023/03/18 09:40:26;;;;;;;35.60;26.20;;;;;;;;;;4973909;28;20050;-77
2023/03/18 09:42:58;;;;;;;37.70;25.88;;;;;;;;;;4974644;28;20122;-77
2023/03/18 09:45:29;;;;;;;32.10;24.63;;;;;;;;;;4974837;28;20078;-77
2023/03/18 09:48:02;;;;;;;31.50;23.17;;;;;;;;;;4975345;28;20389;-78
2023/03/18 09:51:01;;;;;;;32.22;23.33;;;;;;;;;;4977071;28;20134;-77
2023/03/18 09:53:47;;;;;;;33.38;24.33;;;;;;;;;;4941244;28;20121;-80
2023/03/18 09:56:16;;;;;;;31.52;24.80;;;;;;;;;;4977429;28;20051;-79
2023/03/18 09:58:55;;;;;;;31.35;24.98;;;;;;;;;;4977627;28;20050;-83
2023/03/18 10:01:23;;;;;;;33.05;24.75;;;;;;;;;;4977899;28;20049;-80
2023/03/18 10:03:59;;;;;;;34.47;25.13;;;;;;;;;;4977615;28;20130;-79
2023/03/18 10:06:26;;;;;;;32.50;25.13;;;;;;;;;;4977712;28;20051;-80
2023/03/18 10:09:16;;;;;;;35.60;25.45;;;;;;;;;;4976890;28;20039;-79
2023/03/18 10:11:42;;;;;;;36.03;24.92;;;;;;;;;;4977898;28;20485;-79
2023/03/18 10:14:08;;;;;;;31.25;23.77;;;;;;;;;;4977802;28;20035;-78
2023/03/18 10:16:43;;;;;;;30.52;22.42;;;;;;;;;;4977584;28;20043;-81
2023/03/18 10:19:09;;;;;;;26.63;19.88;;;;;;;;;;4969872;28;20546;-80
2023/03/18 10:21:46;;;;;;;30.63;23.67;;;;;;;;;;4977393;28;20062;-81
2023/03/18 10:24:23;;;;;;;26.60;20.73;;;;;;;;;;4977932;28;20371;-81
2023/03/18 10:26:57;;;;;;;27.80;20.73;;;;;;;;;;4978193;28;20050;-81
2023/03/18 10:29:29;;;;;;;25.45;20.52;;;;;;;;;;4977116;28;20078;-80
2023/03/18 10:32:03;;;;;;;26.15;19.30;;;;;;;;;;4977323;28;20500;-80
2023/03/18 10:34:48;;;;;;;24.60;18.25;;;;;;;;;;4978458;28;20046;-80
2023/03/18 10:37:23;;;;;;;27.95;19.40;;;;;;;;;;4976765;28;20054;-80
2023/03/18 10:39:50;;;;;;;22.38;16.50;;;;;;;;;;4978002;28;20047;-80
2023/03/18 10:42:26;;;;;;;20.48;15.38;;;;;;;;;;4977996;28;20089;-81
2023/03/18 10:44:54;;;;;;;19.38;15.85;;;;;;;;;;4977422;28;20490;-79
2023/03/18 10:47:41;;;;;;;21.30;15.30;;;;;;;;;;4975450;28;20039;-80
2023/03/18 10:50:19;;;;;;;14.77;11.95;;;;;;;;;;4977769;28;20051;-80
2023/03/18 10:52:50;;;;;;;20.25;14.55;;;;;;;;;;4957901;28;20070;-82
2023/03/18 10:55:17;;;;;;;20.00;14.88;;;;;;;;;;4974780;28;20039;-79
2023/03/18 10:57:43;;;;;;;16.25;11.52;;;;;;;;;;4976604;28;20042;-80
2023/03/18 11:00:20;;;;;;;16.77;13.57;;;;;;;;;;4976788;28;20381;-80
2023/03/18 11:02:47;;;;;;;19.40;14.48;;;;;;;;;;4977600;28;20046;-80
2023/03/18 11:05:19;;;;;;;17.63;12.60;;;;;;;;;;4977407;28;20065;-80
2023/03/18 11:07:55;;;;;;;15.70;13.02;;;;;;;;;;4977196;28;20043;-82
2023/03/18 11:10:21;;;;;;;;;;;;;;;;;;4977031;28;20088;-80
2023/03/18 11:12:47;;;;;;;12.98;10.23;;;;;;;;;;4976345;28;20004;-81
2023/03/18 11:15:19;;;;;;;15.98;10.38;;;;;;;;;;4976854;28;20097;-81
2023/03/18 11:17:48;;;;;;;14.73;11.05;;;;;;;;;;4975928;28;20042;-81
2023/03/18 11:20:23;;;;;;;14.25;10.48;;;;;;;;;;4975798;28;20086;-81
2023/03/18 11:22:51;;;;;;;9.73;8.15;;;;;;;;;;4977013;28;20049;-83
2023/03/18 11:25:18;;;;;;;9.88;7.13;;;;;;;;;;4982619;28;20051;-83
2023/03/18 11:27:50;;;;;;;10.32;8.05;;;;;;;;;;4984246;28;20057;-82
2023/03/18 11:30:24;;;;;;;9.45;7.57;;;;;;;;;;4979825;28;20063;-81
2023/03/18 11:32:51;;;;;;;8.18;6.43;;;;;;;;;;4976039;28;20047;-81
2023/03/18 11:35:19;;;;;;;9.50;7.00;;;;;;;;;;4973510;28;20066;-80
2023/03/18 11:37:46;;;;;;;7.32;5.60;;;;;;;;;;4959932;29;20051;-81
2023/03/18 11:40:18;;;;;;;10.20;7.20;;;;;;;;;;4974744;28;20042;-81
2023/03/18 11:42:48;;;;;;;7.97;5.75;;;;;;;;;;4980137;28;20070;-83
2023/03/18 11:45:37;;;;;;;6.55;4.45;;;;;;;;;;4979746;28;20046;-81
2023/03/18 11:48:05;;;;;;;6.13;4.30;;;;;;;;;;4979724;28;20051;-81
2023/03/18 11:50:54;;;;;;;6.35;4.20;;;;;;;;;;4978420;28;20043;-81
2023/03/18 11:53:36;;;;;;;4.70;4.13;;;;;;;;;;4978606;28;20043;-79
2023/03/18 11:56:22;;;;;;;7.57;5.40;;;;;;;;;;4976504;28;20047;-81
2023/03/18 11:58:57;;;;;;;7.45;5.32;;;;;;;;;;4975714;28;20581;-81
2023/03/18 12:01:35;;;;;;;9.20;5.82;;;;;;;;;;4975245;28;20045;-81
2023/03/18 12:04:01;;;;;;;8.13;5.75;;;;;;;;;;4974711;28;20516;-81
2023/03/18 12:06:28;;;;;;;9.23;5.40;;;;;;;;;;4974777;28;20576;-81
2023/03/18 12:09:13;;;;;;;8.68;5.70;;;;;;;;;;4976568;28;20055;-81
2023/03/18 12:11:40;;;;;;;8.30;6.28;;;;;;;;;;4980124;28;20042;-81
2023/03/18 12:14:15;;;;;;;7.20;4.97;;;;;;;;;;4980049;28;20181;-81
2023/03/18 12:16:47;;;;;;;5.65;4.75;;;;;;;;;;4980698;28;20059;-81
2023/03/18 12:19:26;;;;;;;6.70;4.85;;;;;;;;;;4978333;28;20090;-81
2023/03/18 12:22:03;;;;;;;4.30;3.90;;;;;;;;;;4980394;28;20122;-82
2023/03/18 12:24:47;;;;;;;6.30;4.00;;;;;;;;;;4977605;28;20426;-81
2023/03/18 12:27:26;;;;;;;4.93;3.90;;;;;;;;;;4980038;28;20056;-81
2023/03/18 12:30:11;;;;;;;6.00;4.65;;;;;;;;;;5008895;28;20414;-81
2023/03/18 12:32:49;;;;;;;5.20;4.57;;;;;;;;;;5009432;28;20114;-81
2023/03/18 12:35:18;;;;;;;7.13;4.80;;;;;;;;;;4977030;28;20049;-81
2023/03/18 12:37:44;;;;;;;5.65;4.47;;;;;;;;;;4976380;28;20090;-81
2023/03/18 12:40:16;;;;;;;6.38;4.75;;;;;;;;;;4977755;28;20043;-81
2023/03/18 12:42:52;;;;;;;4.90;4.38;;;;;;;;;;4993804;28;20051;-81
2023/03/18 12:45:25;;;;;;;8.23;4.80;;;;;;;;;;4978075;28;20085;-80
2023/03/18 12:47:55;;;;;;;7.20;5.38;;;;;;;;;;4978105;28;20042;-82
2023/03/18 12:50:26;;;;;;;7.30;5.22;;;;;;;;;;4978320;28;20055;-81
2023/03/18 12:52:52;;;;;;;9.43;6.20;;;;;;;;;;4978389;28;20490;-81
2023/03/18 12:55:21;;;;;;;7.07;6.38;;;;;;;;;;4977088;28;20054;-81
2023/03/18 12:58:10;;;;;;;7.53;6.70;;;;;;;;;;4978655;28;20104;-81
2023/03/18 13:00:58;;;;;;;7.90;5.78;;;;;;;;;;4982004;28;20493;-80
2023/03/18 13:03:31;;;;;;;6.93;5.50;;;;;;;;;;4984089;28;20039;-81
2023/03/18 13:05:58;;;;;;;6.97;6.18;;;;;;;;;;4971162;28;20098;-80
2023/03/18 13:08:28;;;;;;;6.82;5.28;;;;;;;;;;4985757;28;20501;-81
2023/03/18 13:11:03;;;;;;;6.65;4.53;;;;;;;;;;4985537;28;20042;-80
2023/03/18 13:13:31;;;;;;;6.22;4.20;;;;;;;;;;4985016;28;20046;-81
2023/03/18 13:15:57;;;;;;;5.82;4.20;;;;;;;;;;4982038;28;20052;-81
2023/03/18 13:18:32;;;;;;;7.72;4.50;;;;;;;;;;4983350;28;20046;-81
2023/03/18 13:21:07;;;;;;;7.45;4.00;;;;;;;;;;4983430;28;20047;-81
2023/03/18 13:23:33;;;;;;;4.93;3.78;;;;;;;;;;4983563;28;20074;-81
2023/03/18 13:25:59;;;;;;;5.38;4.00;;;;;;;;;;4981389;28;20042;-81
2023/03/18 13:28:29;;;;;;;5.97;3.78;;;;;;;;;;4985604;28;20101;-81
2023/03/18 13:31:02;;;;;;;5.47;3.53;;;;;;;;;;4984911;28;20409;-82
2023/03/18 13:34:02;;;;;;;;;;;;;;;;;;;;;
2023/03/18 13:36:52;;;;;;;4.32;2.42;;;;;;;;;;4951034;28;20078;-81
2023/03/18 13:39:36;;;;;;;2.85;2.30;;;;;;;;;;4984250;28;20410;-81
2023/03/18 13:42:20;;;;;;;5.57;2.38;;;;;;;;;;4984918;28;20068;-81
2023/03/18 13:44:55;;;;;;;3.28;2.20;;;;;;;;;;4984337;28;20051;-81
2023/03/18 13:47:22;;;;;;;3.13;2.28;;;;;;;;;;4977136;28;20048;-81
2023/03/18 13:49:49;;;;;;;2.72;2.10;;;;;;;;;;4967346;28;20098;-81
2023/03/18 13:52:34;;;;;;;4.28;2.40;;;;;;;;;;4985457;28;20099;-82
2023/03/18 13:55:02;;;;;;;4.22;2.60;;;;;;;;;;4984774;28;20121;-82
2023/03/18 13:57:28;;;;;;;5.90;2.60;;;;;;;;;;4985168;28;20046;-80
2023/03/18 14:00:13;;;;;;;4.45;2.53;;;;;;;;;;4967971;28;20082;-82
2023/03/18 14:02:40;;;;;;;3.35;2.40;;;;;;;;;;4957470;28;20133;-81
2023/03/18 14:05:25;;;;;;;3.72;2.70;;;;;;;;;;4965622;28;20047;-82
2023/03/18 14:07:54;;;;;;;4.03;2.63;;;;;;;;;;4996130;28;20043;-81
2023/03/18 14:10:20;;;;;;;4.55;3.20;;;;;;;;;;4965412;28;20102;-81
2023/03/18 14:12:47;;;;;;;5.15;3.22;;;;;;;;;;4970751;28;20494;-82
2023/03/18 14:15:36;;;;;;;4.70;3.50;;;;;;;;;;4970111;28;20043;-81
2023/03/18 14:18:18;;;;;;;4.90;3.83;;;;;;;;;;4964238;28;20131;-80
2023/03/18 14:20:44;;;;;;;4.35;3.58;;;;;;;;;;4962081;28;20055;-81
2023/03/18 14:23:22;;;;;;;5.30;3.65;;;;;;;;;;4964076;28;20106;-81
2023/03/18 14:25:53;;;;;;;4.53;3.40;;;;;;;;;;4995906;28;20082;-82
2023/03/18 14:28:21;;;;;;;4.50;3.50;;;;;;;;;;4996501;28;20051;-81
2023/03/18 14:30:59;;;;;;;6.32;4.18;;;;;;;;;;4978628;28;20071;-81
2023/03/18 14:33:25;;;;;;;5.45;3.92;;;;;;;;;;4964066;28;20510;-81
2023/03/18 14:36:00;;;;;;;8.32;4.45;;;;;;;;;;4963637;28;20145;-81